createdAt,value
2023-01-29T00:02:09.740Z,27.63
2023-01-29T00:04:38.690Z,27.13
2023-01-29T00:07:08.641Z,29.20
2023-01-29T00:09:39.017Z,24.77
2023-01-29T00:12:08.985Z,26.70
2023-01-29T00:14:38.149Z,27.92
2023-01-29T00:17:07.198Z,26.23
2023-01-29T00:19:37.081Z,28.90
2023-01-29T00:22:06.046Z,29.98
2023-01-29T00:24:35.264Z,27.85
2023-01-29T00:27:06.314Z,29.77
2023-01-29T00:29:35.221Z,27.65
2023-01-29T00:32:04.270Z,29.67
2023-01-29T00:34:33.355Z,31.08
2023-01-29T00:37:08.890Z,30.17
2023-01-29T00:39:47.711Z,28.50
2023-01-29T00:42:35.948Z,28.08
2023-01-29T00:45:07.489Z,25.40
2023-01-29T00:47:40.121Z,26.42
2023-01-29T00:50:12.627Z,24.13
2023-01-29T00:52:42.080Z,24.40
2023-01-29T00:55:12.775Z,25.10
2023-01-29T00:57:43.111Z,26.42
2023-01-29T01:00:16.153Z,26.85
2023-01-29T01:03:02.509Z,25.98
2023-01-29T01:05:31.572Z,25.33
2023-01-29T01:08:00.664Z,25.63
2023-01-29T01:10:32.045Z,24.75
2023-01-29T01:13:05.009Z,25.33
2023-01-29T01:15:41.254Z,28.80
2023-01-29T01:18:10.248Z,27.63
2023-01-29T01:20:40.050Z,28.65
2023-01-29T01:23:09.201Z,27.73
2023-01-29T01:25:38.161Z,28.83
2023-01-29T01:28:08.497Z,26.42
2023-01-29T01:30:37.559Z,29.40
2023-01-29T01:33:06.521Z,29.58
2023-01-29T01:35:35.532Z,28.88
2023-01-29T01:38:04.459Z,29.08
2023-01-29T01:40:33.513Z,28.63
2023-01-29T01:43:03.053Z,29.00
2023-01-29T01:45:35.322Z,28.38
2023-01-29T01:48:08.713Z,29.08
2023-01-29T01:50:44.098Z,27.65
2023-01-29T01:53:16.799Z,29.55
2023-01-29T01:55:50.824Z,25.88
2023-01-29T01:58:25.758Z,27.75
2023-01-29T02:00:56.946Z,26.58
2023-01-29T02:03:45.605Z,24.85
2023-01-29T02:06:32.115Z,26.55
2023-01-29T02:09:24.246Z,26.42
2023-01-29T02:11:53.311Z,25.80
2023-01-29T02:14:22.808Z,25.48
2023-01-29T02:16:53.244Z,25.80
2023-01-29T02:19:33.529Z,26.35
2023-01-29T02:22:47.348Z,26.83
2023-01-29T02:26:04.356Z,28.70
2023-01-29T02:28:43.057Z,29.25
2023-01-29T02:31:25.464Z,29.33
2023-01-29T02:34:07.912Z,29.50
2023-01-29T02:36:46.819Z,28.15
2023-01-29T02:39:24.673Z,26.63
2023-01-29T02:42:02.945Z,28.98
2023-01-29T02:44:41.587Z,32.10
2023-01-29T02:47:18.778Z,31.00
2023-01-29T02:49:53.876Z,29.48
2023-01-29T02:52:28.366Z,32.30
2023-01-29T02:55:03.192Z,29.38
2023-01-29T02:57:37.212Z,28.55
2023-01-29T03:00:14.060Z,27.35
2023-01-29T03:02:48.871Z,28.27
2023-01-29T03:05:25.755Z,28.23
2023-01-29T03:07:59.333Z,27.98
2023-01-29T03:10:38.430Z,29.85
2023-01-29T03:13:15.780Z,29.98
2023-01-29T03:16:01.426Z,28.65
2023-01-29T03:19:02.992Z,29.63
2023-01-29T03:22:00.155Z,27.42
2023-01-29T03:24:57.994Z,27.80
2023-01-29T03:27:51.712Z,27.92
2023-01-29T03:30:41.253Z,27.85
2023-01-29T03:33:46.945Z,29.08
2023-01-29T03:36:22.940Z,30.58
2023-01-29T03:38:52.246Z,30.27
2023-01-29T03:41:28.483Z,30.00
2023-01-29T03:44:13.975Z,27.43
2023-01-29T03:46:53.417Z,28.92
2023-01-29T03:49:35.272Z,31.25
2023-01-29T03:52:16.739Z,28.52
2023-01-29T03:54:59.967Z,29.52
2023-01-29T03:57:38.858Z,27.33
2023-01-29T04:00:17.250Z,26.20
2023-01-29T04:03:05.011Z,26.35
2023-01-29T04:05:49.227Z,26.38
2023-01-29T04:08:30.173Z,27.13
2023-01-29T04:11:11.500Z,30.25
2023-01-29T04:13:41.233Z,30.20
2023-01-29T04:16:16.843Z,32.75
2023-01-29T04:19:00.989Z,33.40
2023-01-29T04:21:38.284Z,32.38
2023-01-29T04:24:09.764Z,31.38
2023-01-29T04:26:59.268Z,32.92
2023-01-29T04:29:41.727Z,30.98
2023-01-29T04:32:19.664Z,32.58
2023-01-29T04:35:08.964Z,33.85
2023-01-29T04:37:46.103Z,34.60
2023-01-29T04:40:26.679Z,34.25
2023-01-29T04:43:06.459Z,29.95
2023-01-29T04:45:49.940Z,31.42
2023-01-29T04:48:26.275Z,28.90
2023-01-29T04:51:03.999Z,27.65
2023-01-29T04:53:46.540Z,28.17
2023-01-29T04:56:22.358Z,27.30
2023-01-29T04:58:56.783Z,24.92
2023-01-29T05:01:33.231Z,24.55
2023-01-29T05:04:07.528Z,25.67
2023-01-29T05:06:38.487Z,28.67
2023-01-29T05:09:10.440Z,27.85
2023-01-29T05:11:39.444Z,27.45
2023-01-29T05:14:12.768Z,28.25
2023-01-29T05:16:46.507Z,29.30
2023-01-29T05:19:16.936Z,29.27
2023-01-29T05:21:49.061Z,27.10
2023-01-29T05:24:21.973Z,27.20
2023-01-29T05:27:11.515Z,29.88
2023-01-29T05:29:44.835Z,26.27
2023-01-29T05:32:14.251Z,26.27
2023-01-29T05:34:43.269Z,25.88
2023-01-29T05:37:12.593Z,27.17
2023-01-29T05:39:42.920Z,26.60
2023-01-29T05:42:11.890Z,25.60
2023-01-29T05:44:40.823Z,27.67
2023-01-29T05:47:09.847Z,27.40
2023-01-29T05:49:39.098Z,28.52
2023-01-29T05:52:08.084Z,27.63
2023-01-29T05:54:37.035Z,24.92
2023-01-29T05:57:07.391Z,26.10
2023-01-29T05:59:39.556Z,26.63
2023-01-29T06:02:08.716Z,29.58
2023-01-29T06:04:37.757Z,28.83
2023-01-29T06:07:06.709Z,28.60
2023-01-29T06:09:35.628Z,32.05
2023-01-29T06:12:06.279Z,31.60
2023-01-29T06:14:36.597Z,31.02
2023-01-29T06:17:05.875Z,30.80
2023-01-29T06:19:34.845Z,32.10
2023-01-29T06:22:03.891Z,33.38
2023-01-29T06:24:33.854Z,32.55
2023-01-29T06:27:02.768Z,29.27
2023-01-29T06:29:31.741Z,30.73
2023-01-29T06:32:02.283Z,31.38
2023-01-29T06:34:31.332Z,30.58
2023-01-29T06:37:00.224Z,29.50
2023-01-29T06:39:29.183Z,29.80
2023-01-29T06:41:58.176Z,28.45
2023-01-29T06:44:27.578Z,31.13
2023-01-29T06:46:56.822Z,30.08
2023-01-29T06:49:27.192Z,28.70
2023-01-29T06:51:56.173Z,31.58
2023-01-29T06:54:25.192Z,30.13
2023-01-29T06:56:54.147Z,28.75
2023-01-29T06:59:23.301Z,29.70
2023-01-29T07:01:52.296Z,28.73
2023-01-29T07:04:21.277Z,30.70
2023-01-29T07:06:51.602Z,31.95
2023-01-29T07:09:20.578Z,29.35
2023-01-29T07:11:49.709Z,28.08
2023-01-29T07:14:18.612Z,27.63
2023-01-29T07:16:47.564Z,27.42
2023-01-29T07:19:16.773Z,27.83
2023-01-29T07:21:45.761Z,28.13
2023-01-29T07:24:16.256Z,27.55
2023-01-29T07:26:45.266Z,24.90
2023-01-29T07:29:14.127Z,21.98
2023-01-29T07:31:43.156Z,21.90
2023-01-29T07:34:12.134Z,22.48
2023-01-29T07:36:41.132Z,20.40
2023-01-29T07:39:10.103Z,19.52
2023-01-29T07:41:40.473Z,21.90
2023-01-29T07:44:17.819Z,23.02
2023-01-29T07:46:46.753Z,19.38
2023-01-29T07:49:16.050Z,19.15
2023-01-29T07:51:45.000Z,18.40
2023-01-29T07:54:13.853Z,17.35
2023-01-29T07:56:44.164Z,16.70
2023-01-29T07:59:13.214Z,17.17
2023-01-29T08:01:42.126Z,15.90
2023-01-29T08:04:11.183Z,15.57
2023-01-29T08:06:40.262Z,14.65
2023-01-29T08:09:09.457Z,14.10
2023-01-29T08:11:38.525Z,13.98
2023-01-29T08:14:09.456Z,13.13
2023-01-29T08:16:40.664Z,13.07
2023-01-29T08:19:10.435Z,13.18
2023-01-29T08:21:39.365Z,12.95
2023-01-29T08:24:08.662Z,12.20
2023-01-29T08:26:37.659Z,12.60
2023-01-29T08:29:07.990Z,11.75
2023-01-29T08:31:38.089Z,12.60
2023-01-29T08:34:07.135Z,11.93
2023-01-29T08:36:36.559Z,11.30
2023-01-29T08:39:05.575Z,12.25
2023-01-29T08:41:34.735Z,11.98
2023-01-29T08:44:04.480Z,11.07
2023-01-29T08:46:34.849Z,11.18
2023-01-29T08:49:03.929Z,11.30
2023-01-29T08:51:33.033Z,11.05
2023-01-29T08:54:01.977Z,11.80
2023-01-29T08:56:31.076Z,11.85
2023-01-29T08:58:59.994Z,11.45
2023-01-29T09:01:29.206Z,11.75
2023-01-29T09:03:59.676Z,11.40
2023-01-29T09:06:28.727Z,9.93
2023-01-29T09:08:57.626Z,9.20
2023-01-29T09:11:26.698Z,10.48
2023-01-29T09:13:55.592Z,10.35
2023-01-29T09:16:24.611Z,10.65
2023-01-29T09:18:54.544Z,10.25
2023-01-29T09:21:24.828Z,9.02
2023-01-29T09:23:53.825Z,9.10
2023-01-29T09:26:22.849Z,9.68
2023-01-29T09:28:52.163Z,9.98
2023-01-29T09:31:21.347Z,9.50
2023-01-29T09:33:50.991Z,9.48
2023-01-29T09:36:21.600Z,9.88
2023-01-29T09:38:52.119Z,10.02
2023-01-29T09:41:37.385Z,8.48
2023-01-29T09:44:18.515Z,9.30
2023-01-29T09:46:51.650Z,9.07
2023-01-29T09:49:27.639Z,9.63
2023-01-29T09:52:04.404Z,8.55
2023-01-29T09:54:48.125Z,8.50
2023-01-29T09:57:22.269Z,8.48
2023-01-29T09:59:51.799Z,8.82
2023-01-29T10:02:52.963Z,8.43
2023-01-29T10:05:49.191Z,9.07
2023-01-29T10:08:49.429Z,8.75
2023-01-29T10:11:37.137Z,9.10
2023-01-29T10:14:19.859Z,9.02
2023-01-29T10:17:08.560Z,9.00
2023-01-29T10:20:03.686Z,9.00
2023-01-29T10:22:58.983Z,8.73
2023-01-29T10:25:28.923Z,9.13
2023-01-29T10:28:01.641Z,9.90
2023-01-29T10:30:35.311Z,9.35
2023-01-29T10:33:08.017Z,8.55
2023-01-29T10:35:43.630Z,8.80
2023-01-29T10:38:32.789Z,8.52
2023-01-29T10:41:27.405Z,9.30
2023-01-29T10:44:13.725Z,8.82
2023-01-29T10:47:03.288Z,8.93
2023-01-29T10:49:53.873Z,9.20
2023-01-29T10:52:38.053Z,9.80
2023-01-29T10:55:27.030Z,9.35
2023-01-29T10:58:07.458Z,9.40
2023-01-29T11:00:41.440Z,9.27
2023-01-29T11:03:27.959Z,9.55
2023-01-29T11:06:10.219Z,9.25
2023-01-29T11:08:47.337Z,9.73
2023-01-29T11:11:18.375Z,8.93
2023-01-29T11:13:57.289Z,8.93
2023-01-29T11:16:30.348Z,8.88
2023-01-29T11:19:01.663Z,10.10
2023-01-29T11:21:31.263Z,10.02
2023-01-29T11:24:12.712Z,9.52
2023-01-29T11:26:43.816Z,10.35
2023-01-29T11:29:41.158Z,9.32
2023-01-29T11:32:15.820Z,9.50
2023-01-29T11:35:02.980Z,10.45
2023-01-29T11:37:38.605Z,10.57
2023-01-29T11:40:38.437Z,10.15
2023-01-29T11:43:30.917Z,10.07
2023-01-29T11:46:03.679Z,11.20
2023-01-29T11:48:45.415Z,11.00
2023-01-29T11:51:24.623Z,11.50
2023-01-29T11:53:58.001Z,10.90
2023-01-29T11:56:33.805Z,11.38
2023-01-29T11:59:04.626Z,10.52
2023-01-29T12:01:37.866Z,11.02
2023-01-29T12:04:19.583Z,12.10
2023-01-29T12:06:53.707Z,10.88
2023-01-29T12:09:26.094Z,10.90
2023-01-29T12:11:55.868Z,10.48
2023-01-29T12:14:34.559Z,10.80
2023-01-29T12:17:11.836Z,10.15
2023-01-29T12:19:51.692Z,10.23
2023-01-29T12:22:28.701Z,10.75
2023-01-29T12:25:03.142Z,10.82
2023-01-29T12:27:39.332Z,10.70
2023-01-29T12:30:16.308Z,10.75
2023-01-29T12:32:51.736Z,10.68
2023-01-29T12:35:27.094Z,10.23
2023-01-29T12:38:02.585Z,10.65
2023-01-29T12:40:39.085Z,10.65
2023-01-29T12:43:17.346Z,11.38
2023-01-29T12:45:52.195Z,10.38
2023-01-29T12:48:27.389Z,11.35
2023-01-29T12:51:09.608Z,11.05
2023-01-29T12:53:44.788Z,10.40
2023-01-29T12:56:20.044Z,11.13
2023-01-29T12:58:53.880Z,11.23
2023-01-29T13:01:32.917Z,11.77
2023-01-29T13:04:06.688Z,11.07
2023-01-29T13:06:43.009Z,11.27
2023-01-29T13:09:18.351Z,10.65
2023-01-29T13:11:53.575Z,11.07
2023-01-29T13:14:26.438Z,11.88
2023-01-29T13:17:04.261Z,12.27
2023-01-29T13:19:39.419Z,11.55
2023-01-29T13:22:20.702Z,11.95
2023-01-29T13:25:03.666Z,11.68
2023-01-29T13:27:36.610Z,12.27
2023-01-29T13:30:07.545Z,11.30
2023-01-29T13:32:37.557Z,12.25
2023-01-29T13:35:17.441Z,11.57
2023-01-29T13:37:53.354Z,11.68
2023-01-29T13:40:27.740Z,11.57
2023-01-29T13:43:00.202Z,12.70
2023-01-29T13:45:37.289Z,11.82
2023-01-29T13:48:19.646Z,11.40
2023-01-29T13:50:49.245Z,12.35
2023-01-29T13:53:26.272Z,11.52
2023-01-29T13:55:55.333Z,11.65
2023-01-29T13:58:55.423Z,11.85
2023-01-29T14:02:04.996Z,12.30
2023-01-29T14:04:34.346Z,12.57
2023-01-29T14:07:23.920Z,11.60
2023-01-29T14:10:18.021Z,12.30
2023-01-29T14:12:53.348Z,12.73
2023-01-29T14:15:32.227Z,12.45
2023-01-29T14:18:25.254Z,12.57
2023-01-29T14:21:04.910Z,13.07
2023-01-29T14:23:46.227Z,12.95
2023-01-29T14:26:31.240Z,14.23
2023-01-29T14:29:05.748Z,13.45
2023-01-29T14:31:44.994Z,11.70
2023-01-29T14:34:23.624Z,13.10
2023-01-29T14:36:56.880Z,14.10
2023-01-29T14:39:35.243Z,13.93
2023-01-29T14:42:18.138Z,13.30
2023-01-29T14:45:01.274Z,13.05
2023-01-29T14:48:20.591Z,12.32
2023-01-29T14:50:59.326Z,15.13
2023-01-29T14:53:47.060Z,13.18
2023-01-29T14:56:20.174Z,12.77
2023-01-29T14:58:55.349Z,13.57
2023-01-29T15:01:32.870Z,13.73
2023-01-29T15:04:06.495Z,14.90
2023-01-29T15:06:42.581Z,14.05
2023-01-29T15:09:16.613Z,13.45
2023-01-29T15:11:55.926Z,14.48
2023-01-29T15:14:33.844Z,13.88
2023-01-29T15:17:18.788Z,12.82
2023-01-29T15:19:49.638Z,14.10
2023-01-29T15:22:20.853Z,13.50
2023-01-29T15:25:08.385Z,14.45
2023-01-29T15:27:37.658Z,13.05
2023-01-29T15:30:16.074Z,14.18
2023-01-29T15:32:45.841Z,14.52
2023-01-29T15:35:28.729Z,14.98
2023-01-29T15:38:03.914Z,15.30
2023-01-29T15:40:34.096Z,13.98
2023-01-29T15:43:03.400Z,15.02
2023-01-29T15:45:36.411Z,15.38
2023-01-29T15:48:13.500Z,14.68
2023-01-29T15:50:44.003Z,13.95
2023-01-29T15:53:21.131Z,14.82
2023-01-29T15:55:51.647Z,13.80
2023-01-29T15:58:25.678Z,13.90
2023-01-29T16:01:01.044Z,14.40
2023-01-29T16:03:34.632Z,15.10
2023-01-29T16:06:06.942Z,15.18
2023-01-29T16:08:36.769Z,15.45
2023-01-29T16:11:08.582Z,14.60
2023-01-29T16:13:44.276Z,14.13
2023-01-29T16:16:24.849Z,14.63
2023-01-29T16:19:00.518Z,14.63
2023-01-29T16:21:34.314Z,14.13
2023-01-29T16:24:09.505Z,14.50
2023-01-29T16:26:43.705Z,14.10
2023-01-29T16:29:16.145Z,13.98
2023-01-29T16:31:48.351Z,14.10
2023-01-29T16:34:25.261Z,14.32
2023-01-29T16:36:55.765Z,14.30
2023-01-29T16:39:28.919Z,13.57
2023-01-29T16:42:31.613Z,13.93
2023-01-29T16:45:02.944Z,15.75
2023-01-29T16:47:37.084Z,15.82
2023-01-29T16:50:35.945Z,15.48
2023-01-29T16:53:14.289Z,14.73
2023-01-29T16:55:46.984Z,15.35
2023-01-29T16:58:19.583Z,22.27
2023-01-29T17:00:51.740Z,17.27
2023-01-29T17:03:26.491Z,15.48
2023-01-29T17:05:56.121Z,14.57
2023-01-29T17:08:29.019Z,13.90
2023-01-29T17:10:58.381Z,15.70
2023-01-29T17:13:32.219Z,14.65
2023-01-29T17:16:03.870Z,15.73
2023-01-29T17:18:34.239Z,15.20
2023-01-29T17:21:03.261Z,15.23
2023-01-29T17:23:32.241Z,15.10
2023-01-29T17:26:02.488Z,14.25
2023-01-29T17:28:32.546Z,14.48
2023-01-29T17:31:06.515Z,14.23
2023-01-29T17:33:41.697Z,14.15
2023-01-29T17:36:14.285Z,14.48
2023-01-29T17:38:43.849Z,14.80
2023-01-29T17:41:20.954Z,14.77
2023-01-29T17:43:50.118Z,12.75
2023-01-29T17:46:19.936Z,14.13
2023-01-29T17:48:50.745Z,14.20
2023-01-29T17:51:20.561Z,14.10
2023-01-29T17:53:49.791Z,14.65
2023-01-29T17:56:28.672Z,14.80
2023-01-29T17:58:58.299Z,14.75
2023-01-29T18:01:27.399Z,15.18
2023-01-29T18:03:58.561Z,14.27
2023-01-29T18:06:30.366Z,15.60
2023-01-29T18:08:59.685Z,15.70
2023-01-29T18:11:29.876Z,15.75
2023-01-29T18:14:02.749Z,15.52
2023-01-29T18:16:44.665Z,16.10
2023-01-29T18:19:22.444Z,15.35
2023-01-29T18:21:52.601Z,15.10
2023-01-29T18:24:22.207Z,15.73
2023-01-29T18:26:52.170Z,14.32
2023-01-29T18:29:21.658Z,16.95
2023-01-29T18:31:50.841Z,15.88
2023-01-29T18:34:21.429Z,14.45
2023-01-29T18:36:50.853Z,15.52
2023-01-29T18:39:19.772Z,14.90
2023-01-29T18:41:48.699Z,15.02
2023-01-29T18:44:17.912Z,14.50
2023-01-29T18:46:47.283Z,14.70
2023-01-29T18:49:16.442Z,15.25
2023-01-29T18:51:46.953Z,14.50
2023-01-29T18:54:18.141Z,15.07
2023-01-29T18:57:13.137Z,15.68
2023-01-29T18:59:36.731Z,16.33
2023-01-29T19:02:06.032Z,15.10
2023-01-29T19:04:35.266Z,15.95
2023-01-29T19:07:05.964Z,15.50
2023-01-29T19:09:35.325Z,16.77
2023-01-29T19:12:06.455Z,16.02
2023-01-29T19:14:38.713Z,15.32
2023-01-29T19:17:08.260Z,14.98
2023-01-29T19:19:37.441Z,15.52
2023-01-29T19:22:08.236Z,16.02
2023-01-29T19:24:39.064Z,17.15
2023-01-29T19:27:08.585Z,16.08
2023-01-29T19:29:37.717Z,17.23
2023-01-29T19:32:08.820Z,15.60
2023-01-29T19:34:38.338Z,16.05
2023-01-29T19:37:09.250Z,17.55
2023-01-29T19:39:38.773Z,16.70
2023-01-29T19:42:08.480Z,16.38
2023-01-29T19:44:40.216Z,17.23
2023-01-29T19:47:10.422Z,15.88
2023-01-29T19:49:40.502Z,17.20
2023-01-29T19:52:14.927Z,16.13
2023-01-29T19:54:46.279Z,15.48
2023-01-29T19:57:15.330Z,15.85
2023-01-29T19:59:45.943Z,15.35
2023-01-29T20:02:16.100Z,17.55
2023-01-29T20:04:48.374Z,16.60
2023-01-29T20:07:21.106Z,16.08
2023-01-29T20:09:52.749Z,15.77
2023-01-29T20:12:21.928Z,16.02
2023-01-29T20:14:52.269Z,15.15
2023-01-29T20:17:22.771Z,15.48
2023-01-29T20:19:51.824Z,14.50
2023-01-29T20:22:22.349Z,16.30
2023-01-29T20:24:51.554Z,16.55
2023-01-29T20:27:21.913Z,16.65
2023-01-29T20:29:52.625Z,16.67
2023-01-29T20:32:22.171Z,15.90
2023-01-29T20:34:52.392Z,15.52
2023-01-29T20:37:23.001Z,16.55
2023-01-29T20:39:51.979Z,17.58
2023-01-29T20:42:20.961Z,16.67
2023-01-29T20:44:50.430Z,16.67
2023-01-29T20:47:19.666Z,17.73
2023-01-29T20:49:49.129Z,16.98
2023-01-29T20:52:18.260Z,17.33
2023-01-29T20:54:49.262Z,16.15
2023-01-29T20:57:18.542Z,16.83
2023-01-29T20:59:48.025Z,16.15
2023-01-29T21:02:17.194Z,17.77
2023-01-29T21:04:46.223Z,18.08
2023-01-29T21:07:16.018Z,17.85
2023-01-29T21:09:45.113Z,16.30
2023-01-29T21:12:17.320Z,17.42
2023-01-29T21:14:46.470Z,17.13
2023-01-29T21:17:16.223Z,18.02
2023-01-29T21:19:45.375Z,17.23
2023-01-29T21:22:14.797Z,16.35
2023-01-29T21:24:43.815Z,17.85
2023-01-29T21:27:12.861Z,16.30
2023-01-29T21:29:43.788Z,17.17
2023-01-29T21:32:12.769Z,16.70
2023-01-29T21:34:42.563Z,17.95
2023-01-29T21:37:12.092Z,18.13
2023-01-29T21:39:43.211Z,16.45
2023-01-29T21:42:29.770Z,17.33
2023-01-29T21:45:00.358Z,17.33
2023-01-29T21:47:29.435Z,17.67
2023-01-29T21:49:58.804Z,19.10
2023-01-29T21:52:29.182Z,16.45
2023-01-29T21:54:58.563Z,18.08
2023-01-29T21:57:27.669Z,19.65
2023-01-29T21:59:57.816Z,18.63
2023-01-29T22:02:30.998Z,16.92
2023-01-29T22:05:17.694Z,18.45
2023-01-29T22:07:48.309Z,18.92
2023-01-29T22:10:19.162Z,19.58
2023-01-29T22:12:49.245Z,17.45
2023-01-29T22:15:18.433Z,18.58
2023-01-29T22:17:49.103Z,18.63
2023-01-29T22:20:18.879Z,18.70
2023-01-29T22:22:48.148Z,17.85
2023-01-29T22:25:20.095Z,18.73
2023-01-29T22:27:49.203Z,18.88
2023-01-29T22:30:19.465Z,19.85
2023-01-29T22:32:50.468Z,19.10
2023-01-29T22:35:19.477Z,18.67
2023-01-29T22:37:48.473Z,20.05
2023-01-29T22:40:18.209Z,20.98
2023-01-29T22:42:47.807Z,21.88
2023-01-29T22:45:17.174Z,20.42
2023-01-29T22:47:46.093Z,20.15
2023-01-29T22:50:18.290Z,21.83
2023-01-29T22:52:54.083Z,21.10
2023-01-29T22:55:23.244Z,21.50
2023-01-29T22:57:53.450Z,21.90
2023-01-29T23:00:23.050Z,21.90
2023-01-29T23:02:52.502Z,22.13
2023-01-29T23:05:22.787Z,22.92
2023-01-29T23:07:51.743Z,22.17
2023-01-29T23:10:20.916Z,22.27
2023-01-29T23:12:49.876Z,21.92
2023-01-29T23:15:18.893Z,22.30
2023-01-29T23:17:48.534Z,23.20
2023-01-29T23:20:20.598Z,21.23
2023-01-29T23:22:51.299Z,22.95
2023-01-29T23:25:20.396Z,24.05
2023-01-29T23:27:48.333Z,23.23
2023-01-29T23:30:18.280Z,24.05
2023-01-29T23:32:47.715Z,22.90
2023-01-29T23:35:16.939Z,23.38
2023-01-29T23:37:45.863Z,25.35
2023-01-29T23:40:16.836Z,25.40
2023-01-29T23:42:46.027Z,25.95
2023-01-29T23:45:15.197Z,28.13
2023-01-29T23:47:44.209Z,25.05
2023-01-29T23:50:13.605Z,24.10
2023-01-29T23:52:42.621Z,25.65
2023-01-29T23:55:11.616Z,24.92
2023-01-29T23:57:41.968Z,24.80
